PWSweather.com
Personal Weather Stations
Station Observations
WATERF01
WaterfordIE

WaterfordIE

Lat: 52.2412507, Lon: -7.1414691

Elevation: 65

Station Type: Davis Vantage Vue

Latest ConditionsUpdated 11:20:01 PM GMT Sunday, Dec 16, 2018
Currently Today's Max Today's Min Today's Average
Temperature 42.8°F6.0°C 46.5°F8.1°C 39.6°F4.2°C 42.7°F5.9°C
Dew Point 38.3°F3.5°C 42.2°F5.7°C 36.0°F2.2°C 39.0°F3.9°C
Winds 4.6 mph WSW7.4 kmh WSW 8.1 mph -13.0 kmh - - 2.4 mph 3.9 kmh
Wind Gusts 8.1 mph13.0 kmh 13.8 mph22.2 kmh - -
Humidity 84% 89% 81% 87%
Pressure 29.78 in1008.5 mb 29.78 in1008.5 mb 29.50 in999.0 mb -
Precipitation - 0.38 in9.7 mm - -
Hour Temp Dew Point Humidity Winds Wind Gusts Pressure Precip Precip Rate Daily Precip Total
11:20 PM 42.8°F6.0°C 38.3°F3.5°C 84% 4.6 mph WSW7.4 kmh WSW 8.1 mph13.0 kmh 29.78 in1008.5 mb - 0.00 in0.0 mm 0.38 in9.7 mm
11:10 PM 43.1°F6.2°C 38.6°F3.7°C 84% 4.6 mph WSW7.4 kmh WSW 6.9 mph11.1 kmh 29.77 in1008.1 mb - 0.00 in0.0 mm 0.38 in9.7 mm
11:00 PM 43.1°F6.2°C 38.9°F3.8°C 85% 5.8 mph WSW9.3 kmh WSW 8.1 mph13.0 kmh 29.76 in1007.8 mb - 0.00 in0.0 mm 0.38 in9.7 mm
10:50 PM 40.3°F4.6°C 37.0°F2.8°C 88% Calm Calm 2.3 mph3.7 kmh 29.76 in1007.8 mb - 0.00 in0.0 mm 0.38 in9.7 mm
10:40 PM 40.6°F4.8°C 37.0°F2.8°C 87% Calm Calm -- 29.76 in1007.8 mb - 0.00 in0.0 mm 0.38 in9.7 mm
10:30 PM 40.8°F4.9°C 37.2°F2.9°C 87% Calm Calm -- 29.75 in1007.5 mb - 0.00 in0.0 mm 0.38 in9.7 mm
10:20 PM 41.1°F5.1°C 37.5°F3.1°C 87% 2.3 mph W3.7 kmh W 5.8 mph9.3 kmh 29.75 in1007.5 mb - 0.00 in0.0 mm 0.38 in9.7 mm
10:10 PM 41.2°F5.1°C 37.9°F3.3°C 88% 4.6 mph SW7.4 kmh SW 8.1 mph13.0 kmh 29.74 in1007.1 mb - 0.00 in0.0 mm 0.38 in9.7 mm
10:00 PM 40.9°F4.9°C 37.3°F2.9°C 87% 4.6 mph W7.4 kmh W 6.9 mph11.1 kmh 29.73 in1006.8 mb - 0.00 in0.0 mm 0.38 in9.7 mm
09:50 PM 40.9°F4.9°C 37.3°F2.9°C 87% 3.5 mph W5.6 kmh W 5.8 mph9.3 kmh 29.73 in1006.8 mb - 0.00 in0.0 mm 0.38 in9.7 mm
09:40 PM 41.3°F5.2°C 37.7°F3.2°C 87% 2.3 mph W3.7 kmh W 5.8 mph9.3 kmh 29.73 in1006.8 mb - 0.00 in0.0 mm 0.38 in9.7 mm
09:30 PM 40.9°F4.9°C 37.6°F3.1°C 88% 4.6 mph WSW7.4 kmh WSW 6.9 mph11.1 kmh 29.73 in1006.8 mb - 0.00 in0.0 mm 0.38 in9.7 mm
09:20 PM 40.9°F4.9°C 37.3°F2.9°C 87% 1.2 mph SSW1.9 kmh SSW 2.3 mph3.7 kmh 29.73 in1006.8 mb - 0.00 in0.0 mm 0.38 in9.7 mm
09:10 PM 41.0°F5.0°C 37.4°F3.0°C 87% 2.3 mph SW3.7 kmh SW 5.8 mph9.3 kmh 29.72 in1006.4 mb - 0.00 in0.0 mm 0.38 in9.7 mm
09:00 PM 41.2°F5.1°C 37.6°F3.1°C 87% 2.3 mph SW3.7 kmh SW 2.3 mph3.7 kmh 29.72 in1006.4 mb - 0.00 in0.0 mm 0.38 in9.7 mm
08:50 PM 41.4°F5.2°C 37.8°F3.2°C 87% 3.5 mph W5.6 kmh W 5.8 mph9.3 kmh 29.71 in1006.1 mb - 0.00 in0.0 mm 0.38 in9.7 mm
08:40 PM 41.2°F5.1°C 37.6°F3.1°C 87% 3.5 mph SW5.6 kmh SW 5.8 mph9.3 kmh 29.71 in1006.1 mb - 0.00 in0.0 mm 0.38 in9.7 mm
08:30 PM 41.2°F5.1°C 37.3°F2.9°C 86% 3.5 mph WSW5.6 kmh WSW 6.9 mph11.1 kmh 29.71 in1006.1 mb - 0.00 in0.0 mm 0.38 in9.7 mm
08:20 PM 41.7°F5.4°C 37.9°F3.3°C 86% 2.3 mph WSW3.7 kmh WSW 5.8 mph9.3 kmh 29.70 in1005.8 mb - 0.00 in0.0 mm 0.38 in9.7 mm
08:10 PM 42.3°F5.7°C 38.1°F3.4°C 85% Calm Calm 2.3 mph3.7 kmh 29.70 in1005.8 mb - 0.00 in0.0 mm 0.38 in9.7 mm
08:00 PM 43.0°F6.1°C 38.8°F3.8°C 85% Calm Calm -- 29.70 in1005.8 mb - 0.00 in0.0 mm 0.38 in9.7 mm
07:50 PM 42.7°F5.9°C 38.8°F3.8°C 86% 1.2 mph W1.9 kmh W 4.6 mph7.4 kmh 29.68 in1005.1 mb - 0.00 in0.0 mm 0.38 in9.7 mm
07:40 PM 42.6°F5.9°C 38.7°F3.7°C 86% 3.5 mph W5.6 kmh W 6.9 mph11.1 kmh 29.68 in1005.1 mb - 0.00 in0.0 mm 0.38 in9.7 mm
07:30 PM 42.4°F5.8°C 38.8°F3.8°C 87% 3.5 mph WSW5.6 kmh WSW 5.8 mph9.3 kmh 29.68 in1005.1 mb - 0.00 in0.0 mm 0.38 in9.7 mm
07:20 PM 42.2°F5.7°C 38.9°F3.8°C 88% 3.5 mph W5.6 kmh W 5.8 mph9.3 kmh 29.67 in1004.7 mb - 0.00 in0.0 mm 0.38 in9.7 mm
07:10 PM 41.9°F5.5°C 38.6°F3.7°C 88% 2.3 mph WSW3.7 kmh WSW 2.3 mph3.7 kmh 29.67 in1004.7 mb - 0.00 in0.0 mm 0.38 in9.7 mm
07:00 PM 41.6°F5.3°C 38.6°F3.7°C 89% 1.2 mph W1.9 kmh W 4.6 mph7.4 kmh 29.66 in1004.4 mb - 0.00 in0.0 mm 0.38 in9.7 mm
06:50 PM 41.6°F5.3°C 38.6°F3.7°C 89% 3.5 mph W5.6 kmh W 5.8 mph9.3 kmh 29.66 in1004.4 mb - 0.00 in0.0 mm 0.38 in9.7 mm
06:40 PM 41.5°F5.3°C 38.5°F3.6°C 89% 2.3 mph W3.7 kmh W 4.6 mph7.4 kmh 29.65 in1004.1 mb - 0.00 in0.0 mm 0.38 in9.7 mm
06:30 PM 41.5°F5.3°C 38.2°F3.4°C 88% 2.3 mph WSW3.7 kmh WSW 4.6 mph7.4 kmh 29.64 in1003.7 mb - 0.00 in0.0 mm 0.38 in9.7 mm
06:20 PM 41.7°F5.4°C 38.4°F3.6°C 88% 3.5 mph WSW5.6 kmh WSW 5.8 mph9.3 kmh 29.64 in1003.7 mb - 0.00 in0.0 mm 0.38 in9.7 mm
06:10 PM 41.8°F5.4°C 38.5°F3.6°C 88% 1.2 mph W1.9 kmh W 2.3 mph3.7 kmh 29.64 in1003.7 mb - 0.00 in0.0 mm 0.38 in9.7 mm
06:00 PM 41.5°F5.3°C 38.2°F3.4°C 88% 2.3 mph W3.7 kmh W 2.3 mph3.7 kmh 29.63 in1003.4 mb - 0.00 in0.0 mm 0.38 in9.7 mm
05:50 PM 41.9°F5.5°C 38.6°F3.7°C 88% 2.3 mph W3.7 kmh W 2.3 mph3.7 kmh 29.62 in1003.0 mb - 0.00 in0.0 mm 0.38 in9.7 mm
05:40 PM 42.0°F5.6°C 38.7°F3.7°C 88% 1.2 mph W1.9 kmh W 2.3 mph3.7 kmh 29.62 in1003.0 mb - 0.00 in0.0 mm 0.38 in9.7 mm
05:30 PM 41.5°F5.3°C 38.5°F3.6°C 89% 2.3 mph W3.7 kmh W 5.8 mph9.3 kmh 29.61 in1002.7 mb - 0.00 in0.0 mm 0.38 in9.7 mm
05:20 PM 41.0°F5.0°C 38.0°F3.3°C 89% Calm Calm 2.3 mph3.7 kmh 29.61 in1002.7 mb - 0.00 in0.0 mm 0.38 in9.7 mm
05:10 PM 41.2°F5.1°C 38.2°F3.4°C 89% Calm Calm -- 29.61 in1002.7 mb - 0.00 in0.0 mm 0.38 in9.7 mm
05:00 PM 41.3°F5.2°C 38.0°F3.3°C 88% Calm Calm -- 29.60 in1002.4 mb - 0.00 in0.0 mm 0.38 in9.7 mm
04:50 PM 41.5°F5.3°C 38.3°F3.5°C 88% 2.3 mph S3.7 kmh S 2.3 mph3.7 kmh 29.60 in1002.4 mb - 0.00 in0.0 mm 0.38 in9.7 mm
04:40 PM 42.0°F5.6°C 38.7°F3.7°C 88% Calm Calm -- 29.59 in1002.0 mb - 0.00 in0.0 mm 0.38 in9.7 mm
04:30 PM 42.3°F5.7°C 39.0°F3.9°C 88% Calm Calm -- 29.59 in1002.0 mb - 0.00 in0.0 mm 0.38 in9.7 mm
04:20 PM 42.1°F5.6°C 38.8°F3.8°C 88% 2.3 mph E3.7 kmh E 4.6 mph7.4 kmh 29.58 in1001.7 mb - 0.00 in0.0 mm 0.38 in9.7 mm
04:10 PM 42.2°F5.7°C 38.9°F3.8°C 88% 2.3 mph E3.7 kmh E 2.3 mph3.7 kmh 29.58 in1001.7 mb - 0.00 in0.0 mm 0.38 in9.7 mm
04:00 PM 42.6°F5.9°C 39.3°F4.1°C 88% 1.2 mph SW1.9 kmh SW 2.3 mph3.7 kmh 29.57 in1001.4 mb - 0.00 in0.0 mm 0.38 in9.7 mm
03:50 PM 43.1°F6.2°C 39.8°F4.3°C 88% Calm Calm 2.3 mph3.7 kmh 29.57 in1001.4 mb - 0.00 in0.0 mm 0.38 in9.7 mm
03:40 PM 43.5°F6.4°C 40.2°F4.6°C 88% Calm Calm -- 29.56 in1001.0 mb - 0.00 in0.0 mm 0.38 in9.7 mm
03:30 PM 43.7°F6.5°C 40.4°F4.7°C 88% Calm Calm -- 29.55 in1000.7 mb - 0.00 in0.0 mm 0.38 in9.7 mm
03:20 PM 43.8°F6.6°C 40.5°F4.7°C 88% Calm Calm -- 29.55 in1000.7 mb - 0.00 in0.0 mm 0.38 in9.7 mm
03:10 PM 43.9°F6.6°C 40.6°F4.8°C 88% 2.3 mph W3.7 kmh W 4.6 mph7.4 kmh 29.55 in1000.7 mb - 0.00 in0.0 mm 0.38 in9.7 mm
03:00 PM 44.1°F6.7°C 40.8°F4.9°C 88% 2.3 mph W3.7 kmh W 4.6 mph7.4 kmh 29.54 in1000.3 mb - 0.00 in0.0 mm 0.38 in9.7 mm
02:50 PM 44.3°F6.8°C 41.0°F5.0°C 88% 2.3 mph W3.7 kmh W 5.8 mph9.3 kmh 29.53 in1000.0 mb - 0.00 in0.0 mm 0.38 in9.7 mm
02:40 PM 44.0°F6.7°C 40.7°F4.8°C 88% 3.5 mph NW5.6 kmh NW 5.8 mph9.3 kmh 29.53 in1000.0 mb - 0.01 in0.3 mm 0.38 in9.7 mm
02:30 PM 43.9°F6.6°C 40.6°F4.8°C 88% 2.3 mph WNW3.7 kmh WNW 4.6 mph7.4 kmh 29.52 in999.7 mb - 0.01 in0.3 mm 0.38 in9.7 mm
02:20 PM 43.5°F6.4°C 40.2°F4.6°C 88% 4.6 mph NW7.4 kmh NW 6.9 mph11.1 kmh 29.52 in999.7 mb - 0.05 in1.3 mm 0.38 in9.7 mm
02:10 PM 43.5°F6.4°C 40.2°F4.6°C 88% 3.5 mph NW5.6 kmh NW 5.8 mph9.3 kmh 29.52 in999.7 mb - 0.09 in2.3 mm 0.38 in9.7 mm
02:00 PM 43.6°F6.4°C 40.3°F4.6°C 88% 2.3 mph NW3.7 kmh NW 4.6 mph7.4 kmh 29.51 in999.3 mb - 0.12 in3.0 mm 0.38 in9.7 mm
01:50 PM 43.6°F6.4°C 40.6°F4.8°C 89% 2.3 mph NW3.7 kmh NW 2.3 mph3.7 kmh 29.51 in999.3 mb - 0.15 in3.8 mm 0.38 in9.7 mm
01:40 PM 43.9°F6.6°C 40.9°F4.9°C 89% 3.5 mph NW5.6 kmh NW 8.1 mph13.0 kmh 29.51 in999.3 mb - 0.15 in3.8 mm 0.37 in9.4 mm
01:30 PM 43.9°F6.6°C 40.9°F4.9°C 89% 6.9 mph NW11.1 kmh NW 8.1 mph13.0 kmh 29.50 in999.0 mb - 0.15 in3.8 mm 0.37 in9.4 mm
01:20 PM 44.5°F6.9°C 41.5°F5.3°C 89% 5.8 mph NW9.3 kmh NW 11.5 mph18.5 kmh 29.50 in999.0 mb - 0.12 in3.0 mm 0.34 in8.6 mm
01:10 PM 44.7°F7.1°C 41.6°F5.3°C 89% 3.5 mph WNW5.6 kmh WNW 5.8 mph9.3 kmh 29.51 in999.3 mb - 0.07 in1.8 mm 0.29 in7.4 mm
01:00 PM 44.7°F7.1°C 41.7°F5.4°C 89% 4.6 mph NW7.4 kmh NW 6.9 mph11.1 kmh 29.51 in999.3 mb - 0.04 in1.0 mm 0.26 in6.6 mm
12:50 PM 44.9°F7.2°C 41.9°F5.5°C 89% 2.3 mph W3.7 kmh W 2.3 mph3.7 kmh 29.50 in999.0 mb - 0.02 in0.5 mm 0.23 in5.8 mm
12:40 PM 45.1°F7.3°C 42.1°F5.6°C 89% 1.2 mph SW1.9 kmh SW 2.3 mph3.7 kmh 29.51 in999.3 mb - 0.02 in0.5 mm 0.22 in5.6 mm
12:30 PM 45.2°F7.3°C 42.2°F5.7°C 89% Calm Calm -- 29.51 in999.3 mb - 0.02 in0.5 mm 0.22 in5.6 mm
12:20 PM 45.1°F7.3°C 42.1°F5.6°C 89% Calm Calm -- 29.51 in999.3 mb - 0.03 in0.8 mm 0.22 in5.6 mm
12:10 PM 44.9°F7.2°C 41.9°F5.5°C 89% Calm Calm -- 29.51 in999.3 mb - 0.03 in0.8 mm 0.22 in5.6 mm
12:00 PM 44.7°F7.1°C 41.7°F5.4°C 89% Calm Calm 2.3 mph3.7 kmh 29.51 in999.3 mb - 0.04 in1.0 mm 0.22 in5.6 mm
11:50 AM 44.5°F6.9°C 41.5°F5.3°C 89% Calm Calm -- 29.52 in999.7 mb - 0.05 in1.3 mm 0.21 in5.3 mm
11:40 AM 44.6°F7.0°C 41.5°F5.3°C 89% Calm Calm -- 29.52 in999.7 mb - 0.05 in1.3 mm 0.20 in5.1 mm
11:30 AM 44.6°F7.0°C 41.2°F5.1°C 88% Calm Calm 1.2 mph1.9 kmh 29.53 in1000.0 mb - 0.06 in1.5 mm 0.20 in5.1 mm
11:20 AM 44.4°F6.9°C 41.1°F5.1°C 88% 1.2 mph S1.9 kmh S 2.3 mph3.7 kmh 29.53 in1000.0 mb - 0.09 in2.3 mm 0.19 in4.8 mm
11:10 AM 44.3°F6.8°C 41.0°F5.0°C 88% 1.2 mph SSW1.9 kmh SSW 4.6 mph7.4 kmh 29.53 in1000.0 mb - 0.10 in2.5 mm 0.19 in4.8 mm
11:00 AM 44.3°F6.8°C 41.0°F5.0°C 88% 3.5 mph SSW5.6 kmh SSW 4.6 mph7.4 kmh 29.54 in1000.3 mb - 0.09 in2.3 mm 0.18 in4.6 mm
10:50 AM 44.3°F6.8°C 41.0°F5.0°C 88% 4.6 mph S7.4 kmh S 6.9 mph11.1 kmh 29.54 in1000.3 mb - 0.07 in1.8 mm 0.16 in4.1 mm
10:40 AM 44.1°F6.7°C 40.8°F4.9°C 88% 2.3 mph S3.7 kmh S 5.8 mph9.3 kmh 29.54 in1000.3 mb - 0.06 in1.5 mm 0.15 in3.8 mm
10:30 AM 43.8°F6.6°C 40.5°F4.7°C 88% 2.3 mph SSE3.7 kmh SSE 2.3 mph3.7 kmh 29.54 in1000.3 mb - 0.05 in1.3 mm 0.14 in3.6 mm
10:20 AM 43.7°F6.5°C 40.4°F4.7°C 88% 1.2 mph SSE1.9 kmh SSE 4.6 mph7.4 kmh 29.54 in1000.3 mb - 0.02 in0.5 mm 0.11 in2.8 mm
10:10 AM 43.8°F6.6°C 40.5°F4.7°C 88% Calm Calm -- 29.54 in1000.3 mb - 0.04 in1.0 mm 0.09 in2.3 mm
10:00 AM 43.8°F6.6°C 40.2°F4.6°C 87% Calm Calm -- 29.53 in1000.0 mb - 0.07 in1.8 mm 0.09 in2.3 mm
09:50 AM 43.8°F6.6°C 40.2°F4.6°C 87% Calm Calm -- 29.53 in1000.0 mb - 0.07 in1.8 mm 0.09 in2.3 mm
09:40 AM 43.8°F6.6°C 40.2°F4.6°C 87% Calm Calm -- 29.53 in1000.0 mb - 0.08 in2.0 mm 0.09 in2.3 mm
09:30 AM 43.9°F6.6°C 40.3°F4.6°C 87% 3.5 mph S5.6 kmh S 5.8 mph9.3 kmh 29.53 in1000.0 mb - 0.09 in2.3 mm 0.09 in2.3 mm
09:20 AM 44.0°F6.7°C 40.4°F4.7°C 87% 4.6 mph SE7.4 kmh SE 8.1 mph13.0 kmh 29.53 in1000.0 mb - 0.09 in2.3 mm 0.09 in2.3 mm
09:10 AM 44.2°F6.8°C 40.3°F4.6°C 86% 4.6 mph WSW7.4 kmh WSW 8.1 mph13.0 kmh 29.54 in1000.3 mb - 0.05 in1.3 mm 0.05 in1.3 mm
09:00 AM 44.6°F7.0°C 40.4°F4.7°C 85% 3.5 mph W5.6 kmh W 6.9 mph11.1 kmh 29.54 in1000.3 mb - 0.02 in0.5 mm 0.02 in0.5 mm
08:50 AM 45.1°F7.3°C 40.2°F4.6°C 83% 4.6 mph WSW7.4 kmh WSW 8.1 mph13.0 kmh 29.54 in1000.3 mb - 0.02 in0.5 mm 0.02 in0.5 mm
08:40 AM 45.7°F7.6°C 40.5°F4.7°C 82% 5.8 mph W9.3 kmh W 8.1 mph13.0 kmh 29.54 in1000.3 mb - 0.01 in0.3 mm 0.01 in0.3 mm
08:30 AM 46.2°F7.9°C 40.7°F4.8°C 81% 8.1 mph WNW13.0 kmh WNW 12.7 mph20.4 kmh 29.53 in1000.0 mb - 0.00 in0.0 mm 0.00 in0.0 mm
08:20 AM 46.5°F8.1°C 41.3°F5.2°C 82% 5.8 mph W9.3 kmh W 8.1 mph13.0 kmh 29.53 in1000.0 mb - 0.00 in0.0 mm 0.00 in0.0 mm
08:10 AM 45.4°F7.4°C 41.1°F5.1°C 85% 3.5 mph WSW5.6 kmh WSW 11.5 mph18.5 kmh 29.53 in1000.0 mb - 0.00 in0.0 mm 0.00 in0.0 mm
08:00 AM 45.0°F7.2°C 40.8°F4.9°C 85% Calm Calm -- 29.52 in999.7 mb - 0.00 in0.0 mm 0.00 in0.0 mm
07:50 AM 45.1°F7.3°C 40.9°F4.9°C 85% Calm Calm -- 29.52 in999.7 mb - 0.00 in0.0 mm 0.00 in0.0 mm
07:40 AM 45.1°F7.3°C 41.2°F5.1°C 86% 1.2 mph WSW1.9 kmh WSW 2.3 mph3.7 kmh 29.52 in999.7 mb - 0.00 in0.0 mm 0.00 in0.0 mm
07:30 AM 44.6°F7.0°C 40.9°F4.9°C 87% 1.2 mph SW1.9 kmh SW 5.8 mph9.3 kmh 29.52 in999.7 mb - 0.00 in0.0 mm 0.00 in0.0 mm
07:20 AM 44.0°F6.7°C 40.6°F4.8°C 88% 2.3 mph WSW3.7 kmh WSW 5.8 mph9.3 kmh 29.52 in999.7 mb - 0.00 in0.0 mm 0.00 in0.0 mm
07:10 AM 43.1°F6.2°C 39.8°F4.3°C 88% 2.3 mph SSW3.7 kmh SSW 5.8 mph9.3 kmh 29.52 in999.7 mb - 0.00 in0.0 mm 0.00 in0.0 mm
07:00 AM 42.2°F5.7°C 38.6°F3.7°C 87% Calm Calm -- 29.52 in999.7 mb - 0.00 in0.0 mm 0.00 in0.0 mm
06:50 AM 42.2°F5.7°C 38.6°F3.7°C 87% Calm Calm -- 29.52 in999.7 mb - 0.00 in0.0 mm 0.00 in0.0 mm
06:40 AM 42.2°F5.7°C 38.9°F3.8°C 88% Calm Calm -- 29.53 in1000.0 mb - 0.00 in0.0 mm 0.00 in0.0 mm
06:30 AM 41.6°F5.3°C 38.3°F3.5°C 88% Calm Calm -- 29.53 in1000.0 mb - 0.00 in0.0 mm 0.00 in0.0 mm
06:20 AM 41.2°F5.1°C 37.9°F3.3°C 88% Calm Calm -- 29.54 in1000.3 mb - 0.00 in0.0 mm 0.00 in0.0 mm
06:10 AM 40.8°F4.9°C 37.6°F3.1°C 88% Calm Calm -- 29.54 in1000.3 mb - 0.00 in0.0 mm 0.00 in0.0 mm
06:00 AM 40.4°F4.7°C 36.8°F2.7°C 87% Calm Calm -- 29.54 in1000.3 mb - 0.00 in0.0 mm 0.00 in0.0 mm
05:50 AM 40.7°F4.8°C 37.1°F2.8°C 87% Calm Calm -- 29.54 in1000.3 mb - 0.00 in0.0 mm 0.00 in0.0 mm
05:40 AM 40.6°F4.8°C 37.0°F2.8°C 87% 2.3 mph WSW3.7 kmh WSW 4.6 mph7.4 kmh 29.54 in1000.3 mb - 0.00 in0.0 mm 0.00 in0.0 mm
05:30 AM 40.9°F4.9°C 37.1°F2.8°C 86% 1.2 mph WSW1.9 kmh WSW 2.3 mph3.7 kmh 29.54 in1000.3 mb - 0.00 in0.0 mm 0.00 in0.0 mm
05:20 AM 41.7°F5.4°C 37.6°F3.1°C 85% 1.2 mph WSW1.9 kmh WSW 2.3 mph3.7 kmh 29.54 in1000.3 mb - 0.00 in0.0 mm 0.00 in0.0 mm
05:10 AM 42.6°F5.9°C 38.1°F3.4°C 84% 1.2 mph WSW1.9 kmh WSW 2.3 mph3.7 kmh 29.53 in1000.0 mb - 0.00 in0.0 mm 0.00 in0.0 mm
05:00 AM 43.1°F6.2°C 38.6°F3.7°C 84% 2.3 mph W3.7 kmh W 2.3 mph3.7 kmh 29.54 in1000.3 mb - 0.00 in0.0 mm 0.00 in0.0 mm
04:50 AM 42.9°F6.1°C 38.4°F3.6°C 84% 3.5 mph WSW5.6 kmh WSW 5.8 mph9.3 kmh 29.54 in1000.3 mb - 0.00 in0.0 mm 0.00 in0.0 mm
04:40 AM 42.7°F5.9°C 38.5°F3.6°C 85% 3.5 mph W5.6 kmh W 8.1 mph13.0 kmh 29.54 in1000.3 mb - 0.00 in0.0 mm 0.00 in0.0 mm
04:30 AM 42.9°F6.1°C 38.4°F3.6°C 84% 4.6 mph W7.4 kmh W 5.8 mph9.3 kmh 29.54 in1000.3 mb - 0.00 in0.0 mm 0.00 in0.0 mm
04:20 AM 43.1°F6.2°C 38.9°F3.8°C 85% 3.5 mph W5.6 kmh W 8.1 mph13.0 kmh 29.54 in1000.3 mb - 0.00 in0.0 mm 0.00 in0.0 mm
04:10 AM 42.5°F5.8°C 38.3°F3.5°C 85% 4.6 mph WSW7.4 kmh WSW 5.8 mph9.3 kmh 29.54 in1000.3 mb - 0.00 in0.0 mm 0.00 in0.0 mm
04:00 AM 42.3°F5.7°C 38.4°F3.6°C 86% 3.5 mph W5.6 kmh W 8.1 mph13.0 kmh 29.55 in1000.7 mb - 0.00 in0.0 mm 0.00 in0.0 mm
03:50 AM 41.7°F5.4°C 38.1°F3.4°C 87% 5.8 mph WSW9.3 kmh WSW 8.1 mph13.0 kmh 29.55 in1000.7 mb - 0.00 in0.0 mm 0.00 in0.0 mm
03:40 AM 41.0°F5.0°C 37.1°F2.8°C 86% 3.5 mph WSW5.6 kmh WSW 5.8 mph9.3 kmh 29.55 in1000.7 mb - 0.00 in0.0 mm 0.00 in0.0 mm
03:30 AM 41.7°F5.4°C 37.5°F3.1°C 85% 2.3 mph W3.7 kmh W 4.6 mph7.4 kmh 29.55 in1000.7 mb - 0.00 in0.0 mm 0.00 in0.0 mm
03:20 AM 42.0°F5.6°C 38.1°F3.4°C 86% 3.5 mph W5.6 kmh W 5.8 mph9.3 kmh 29.55 in1000.7 mb - 0.00 in0.0 mm 0.00 in0.0 mm
03:10 AM 41.4°F5.2°C 37.8°F3.2°C 87% 3.5 mph WSW5.6 kmh WSW 5.8 mph9.3 kmh 29.55 in1000.7 mb - 0.00 in0.0 mm 0.00 in0.0 mm
03:00 AM 40.8°F4.9°C 37.2°F2.9°C 87% 4.6 mph W7.4 kmh W 8.1 mph13.0 kmh 29.55 in1000.7 mb - 0.00 in0.0 mm 0.00 in0.0 mm
02:50 AM 40.5°F4.7°C 36.9°F2.7°C 87% 3.5 mph WSW5.6 kmh WSW 5.8 mph9.3 kmh 29.56 in1001.0 mb - 0.00 in0.0 mm 0.00 in0.0 mm
02:40 AM 40.6°F4.8°C 37.1°F2.8°C 87% 3.5 mph W5.6 kmh W 5.8 mph9.3 kmh 29.56 in1001.0 mb - 0.00 in0.0 mm 0.00 in0.0 mm
02:30 AM 40.9°F4.9°C 37.3°F2.9°C 87% 3.5 mph WNW5.6 kmh WNW 5.8 mph9.3 kmh 29.56 in1001.0 mb - 0.00 in0.0 mm 0.00 in0.0 mm
02:20 AM 40.6°F4.8°C 37.0°F2.8°C 87% 3.5 mph WNW5.6 kmh WNW 6.9 mph11.1 kmh 29.56 in1001.0 mb - 0.00 in0.0 mm 0.00 in0.0 mm
02:10 AM 40.3°F4.6°C 36.7°F2.6°C 87% 3.5 mph WSW5.6 kmh WSW 6.9 mph11.1 kmh 29.55 in1000.7 mb - 0.00 in0.0 mm 0.00 in0.0 mm
02:00 AM 39.6°F4.2°C 36.0°F2.2°C 87% Calm Calm -- 29.55 in1000.7 mb - 0.00 in0.0 mm 0.00 in0.0 mm
01:50 AM 40.2°F4.6°C 36.6°F2.6°C 87% Calm Calm -- 29.55 in1000.7 mb - 0.00 in0.0 mm 0.00 in0.0 mm
01:40 AM 40.5°F4.7°C 36.6°F2.6°C 86% Calm Calm -- 29.55 in1000.7 mb - 0.00 in0.0 mm 0.00 in0.0 mm
01:30 AM 41.0°F5.0°C 37.1°F2.8°C 86% Calm Calm -- 29.55 in1000.7 mb - 0.00 in0.0 mm 0.00 in0.0 mm
01:20 AM 41.2°F5.1°C 37.4°F3.0°C 86% 3.5 mph SSW5.6 kmh SSW 5.8 mph9.3 kmh 29.55 in1000.7 mb - 0.00 in0.0 mm 0.00 in0.0 mm
01:10 AM 41.6°F5.3°C 37.5°F3.1°C 85% 3.5 mph WSW5.6 kmh WSW 8.1 mph13.0 kmh 29.55 in1000.7 mb - 0.00 in0.0 mm 0.00 in0.0 mm
01:00 AM 42.1°F5.6°C 37.9°F3.3°C 85% 4.6 mph WSW7.4 kmh WSW 8.1 mph13.0 kmh 29.54 in1000.3 mb - 0.00 in0.0 mm 0.00 in0.0 mm
12:50 AM 42.4°F5.8°C 38.2°F3.4°C 85% 3.5 mph WSW5.6 kmh WSW 6.9 mph11.1 kmh 29.54 in1000.3 mb - 0.00 in0.0 mm 0.00 in0.0 mm
12:40 AM 42.4°F5.8°C 38.2°F3.4°C 85% 6.9 mph WSW11.1 kmh WSW 13.8 mph22.2 kmh 29.54 in1000.3 mb - 0.00 in0.0 mm 0.00 in0.0 mm
12:30 AM 42.5°F5.8°C 38.0°F3.3°C 84% 3.5 mph W5.6 kmh W 8.1 mph13.0 kmh 29.54 in1000.3 mb - 0.00 in0.0 mm 0.00 in0.0 mm
12:20 AM 42.6°F5.9°C 38.1°F3.4°C 84% 4.6 mph W7.4 kmh W 8.1 mph13.0 kmh 29.53 in1000.0 mb - 0.00 in0.0 mm 0.00 in0.0 mm
12:10 AM 42.8°F6.0°C 38.3°F3.5°C 84% 6.9 mph WSW11.1 kmh WSW 11.5 mph18.5 kmh 29.53 in1000.0 mb - 0.00 in0.0 mm 0.00 in0.0 mm
12:00 AM 42.8°F6.0°C 38.3°F3.5°C 84% 6.9 mph WSW11.1 kmh WSW 12.7 mph20.4 kmh 29.52 in999.7 mb - 0.00 in0.0 mm 0.00 in0.0 mm